Voitsberg, Austria
Current Conditions -  °F | °C
As of 10:50 PM on Sunday 21 Dec 2014 (Local Time) from LOWG Reporting Station
Clear Clear  
Wind Chill: 32°   Ceiling: Unl
Heat Index: 32°   Visibility: 6mi
Dew Point: 27°   Wind: 3mph
Humidity: 80%   Direction: 310°NW
Pressure: 30.39"   Gusts: NA
Location:  47.04°N, 15.15°E
Report Text: LOWG 212050Z 31003KT 250V330 CAVOK 00/M03 Q1029 NOSIG
Loading
Personal Weather Stations






























Interactive Weather Map New forecast layout! Learn more

10-Day Weather Forecast

Advertisements
Track Severe Weather on mobile